Time;durP1;ratioP1;P1;durP2;ratioP2;P2;SDS_P1;SDS_P2;PMS_P1;PMS_P2;Temp;Humidity;BMP_temperature;BMP_pressure;BME280_temperature;BME280_humidity;BME280_pressure;Samples;Min_cycle;Max_cycle;Signal;HPM_P1;HPM_P2
2022/12/23 00:00:03;;;;;;;25.15;19.90;;;;;;;21.70;39.93;94738.16;5025116;28;20595;-65
2022/12/23 00:02:28;;;;;;;22.17;19.35;;;;;;;21.83;40.00;94754.63;5019386;28;20024;-65
2022/12/23 00:04:54;;;;;;;25.00;19.77;;;;;;;20.92;40.00;94630.47;5023317;28;20041;-65
2022/12/23 00:07:19;;;;;;;22.80;19.33;;;;;;;21.07;39.78;94658.75;5004798;28;20049;-65
2022/12/23 00:09:45;;;;;;;22.88;18.58;;;;;;;21.73;39.94;94756.16;5008726;28;20046;-64
2022/12/23 00:15:06;;;;;;;24.88;20.35;;;;;;;21.64;40.06;94775.50;5024275;28;20048;-65
2022/12/23 00:17:32;;;;;;;25.65;20.52;;;;;;;21.47;40.11;94731.38;4999974;28;20063;-65
2022/12/23 00:19:58;;;;;;;25.75;20.08;;;;;;;21.33;39.94;94708.00;4991984;28;20073;-64
2022/12/23 00:23:03;;;;;;;25.60;20.52;;;;;;;21.17;39.84;94684.38;4989365;28;20499;-65
2022/12/23 00:25:09;;;;;;;25.88;20.90;;;;;;;21.71;40.01;94780.41;5012065;28;20474;-65
2022/12/23 00:27:34;;;;;;;25.50;20.08;;;;;;;21.52;40.10;94758.53;5001893;28;20041;-64
2022/12/23 00:30:00;;;;;;;25.27;20.58;;;;;;;21.66;40.19;94781.19;5006378;28;20037;-65
2022/12/23 00:32:25;;;;;;;24.75;20.25;;;;;;;20.29;39.97;94596.47;4993729;28;20547;-64
2022/12/23 00:34:51;;;;;;;24.60;20.33;;;;;;;20.80;40.07;94658.16;5015205;28;20052;-63
2022/12/23 00:37:16;;;;;;;24.17;19.05;;;;;;;20.80;39.76;94650.03;5012975;28;20526;-66
2022/12/23 00:45:16;;;;;;;25.20;20.38;;;;;;;21.64;40.09;94775.50;5022224;28;20084;-64
2022/12/23 00:50:29;;;;;;;27.60;20.35;;;;;;;21.61;40.20;94765.63;4995266;28;20065;-63
2022/12/23 00:52:55;;;;;;;27.45;21.25;;;;;;;21.43;40.12;94733.59;5019362;28;20057;-64
2022/12/23 00:55:20;;;;;;;24.90;20.70;;;;;;;21.59;40.16;94757.25;5002015;28;20423;-62
2022/12/23 00:57:45;;;;;;;25.70;20.80;;;;;;;21.58;40.08;94750.31;4992121;28;20040;-64
2022/12/23 01:00:11;;;;;;;25.60;20.60;;;;;;;21.06;40.23;94689.88;5022326;28;20056;-63
2022/12/23 01:05:36;;;;;;;25.73;20.73;;;;;;;21.52;40.05;94768.63;5005382;28;20297;-64
2022/12/23 01:08:06;;;;;;;26.00;21.50;;;;;;;21.25;40.00;94736.16;5003085;28;20053;-64
2022/12/23 01:10:33;;;;;;;;;;;;;;;21.51;40.15;94783.47;5002262;28;20596;-64
2022/12/23 01:12:58;;;;;;;25.55;21.15;;;;;;;21.51;40.03;94767.91;5005971;28;19975;-65
2022/12/23 01:15:24;;;;;;;30.73;22.63;;;;;;;21.42;40.02;94743.00;4988724;28;20049;-64
2022/12/23 01:17:49;;;;;;;26.73;20.23;;;;;;;21.59;40.10;94770.84;4995019;28;20458;-65
2022/12/23 01:20:15;;;;;;;26.73;20.73;;;;;;;21.35;40.16;94743.53;5024706;28;20537;-63
2022/12/23 01:22:40;;;;;;;26.75;21.30;;;;;;;21.50;40.54;94765.69;5009955;28;20518;-64
2022/12/23 01:25:06;;;;;;;27.10;22.00;;;;;;;21.33;40.06;94743.28;5006338;28;20076;-63
2022/12/23 01:27:32;;;;;;;26.45;21.70;;;;;;;20.86;40.20;94677.88;5022768;28;20038;-62
2022/12/23 01:29:57;;;;;;;26.45;21.58;;;;;;;21.43;40.20;94755.31;5027116;28;20038;-62
2022/12/23 01:32:22;;;;;;;26.67;21.95;;;;;;;21.46;40.37;94762.50;5024441;28;20033;-65
2022/12/23 01:34:48;;;;;;;26.98;22.27;;;;;;;21.50;40.20;94768.41;5011440;28;20131;-62
2022/12/23 01:37:13;;;;;;;25.63;21.00;;;;;;;21.50;40.11;94761.00;5026305;28;20037;-64
2022/12/23 01:39:39;;;;;;;27.30;21.92;;;;;;;21.39;40.10;94738.56;5012668;28;20501;-63
2022/12/23 01:45:03;;;;;;;26.25;21.33;;;;;;;21.46;40.12;94748.91;5003370;28;20107;-62
2022/12/23 01:47:28;;;;;;;26.92;21.13;;;;;;;21.42;40.20;94743.00;4990261;28;20777;-64
2022/12/23 01:50:20;;;;;;;26.92;21.40;;;;;;;21.43;40.24;94744.47;5015187;28;20093;-64
2022/12/23 01:53:04;;;;;;;28.25;22.20;;;;;;;21.47;40.13;94739.53;5016626;28;20084;-64
2022/12/23 01:55:30;;;;;;;27.75;22.00;;;;;;;21.44;40.20;94735.81;5021582;28;20048;-63
2022/12/23 01:58:00;;;;;;;28.27;21.65;;;;;;;21.45;40.06;94736.56;5022746;28;20052;-63
2022/12/23 02:09:15;;;;;;;27.45;22.90;;;;;;;21.35;40.12;94716.38;5014496;28;20198;-65
2022/12/23 02:11:34;;;;;;;28.45;23.08;;;;;;;21.44;40.63;94729.66;5022131;28;20045;-63
2022/12/23 02:17:04;;;;;;;28.15;21.90;;;;;;;21.39;40.11;94708.69;5011838;28;20485;-64
2022/12/23 02:20:07;;;;;;;27.75;22.63;;;;;;;21.36;40.30;94707.00;5001304;28;20048;-63
2022/12/23 02:22:48;;;;;;;29.23;23.27;;;;;;;21.37;40.08;94708.44;5007564;28;20814;-65
2022/12/23 02:25:16;;;;;;;27.52;22.33;;;;;;;21.36;40.15;94698.84;5006643;28;20045;-63
2022/12/23 02:28:20;;;;;;;30.17;23.17;;;;;;;21.42;40.16;94694.09;5009632;28;20430;-62
2022/12/23 02:30:47;;;;;;;29.25;22.17;;;;;;;21.39;40.17;94705.97;4984780;28;20038;-64
2022/12/23 02:33:14;;;;;;;29.15;22.98;;;;;;;21.39;40.29;94703.25;4972831;28;20045;-64
2022/12/23 02:36:15;;;;;;;29.05;22.75;;;;;;;21.42;40.21;94710.41;4988593;28;20510;-64
2022/12/23 02:38:46;;;;;;;27.55;21.73;;;;;;;21.09;40.29;94683.44;4986993;28;20049;-65
2022/12/23 02:41:21;;;;;;;30.70;23.52;;;;;;;21.38;40.13;94709.94;5007190;28;20143;-65
2022/12/23 02:43:49;;;;;;;30.05;23.15;;;;;;;20.75;40.22;94615.53;5011880;28;20370;-63
2022/12/23 02:46:55;;;;;;;29.58;22.95;;;;;;;21.32;40.21;94701.06;5001998;28;20045;-65
2022/12/23 02:49:35;;;;;;;27.38;22.35;;;;;;;21.30;40.22;94703.56;4920741;29;20146;-63
2022/12/23 02:52:03;;;;;;;30.73;23.67;;;;;;;21.26;40.29;94686.78;4936593;28;20062;-64
2022/12/23 02:54:29;;;;;;;29.65;22.85;;;;;;;21.32;40.04;94739.09;4965619;28;20065;-63
2022/12/23 02:56:55;;;;;;;30.85;24.25;;;;;;;21.12;40.18;94677.00;4974268;28;20177;-62
2022/12/23 02:59:23;;;;;;;30.48;24.42;;;;;;;21.12;40.20;94677.00;4978113;28;20476;-64
2022/12/23 03:01:48;;;;;;;29.35;22.77;;;;;;;21.22;40.27;94683.59;4999888;28;20573;-63
2022/12/23 03:04:14;;;;;;;28.92;23.60;;;;;;;21.30;40.21;94722.56;4992542;28;20045;-64
2022/12/23 03:06:43;;;;;;;29.70;23.38;;;;;;;21.29;40.11;94699.38;5005639;28;20057;-64
2022/12/23 03:09:10;;;;;;;29.30;23.70;;;;;;;21.16;40.24;94699.19;5002955;28;20054;-65
2022/12/23 03:12:02;;;;;;;31.27;23.60;;;;;;;21.30;40.18;94708.25;4987152;28;20284;-64
2022/12/23 03:14:46;;;;;;;29.27;23.08;;;;;;;21.13;40.33;94677.72;4998798;28;20055;-66
2022/12/23 03:17:36;;;;;;;30.33;24.20;;;;;;;21.36;40.04;94701.56;4997405;28;20096;-63
2022/12/23 03:20:25;;;;;;;33.58;24.23;;;;;;;21.11;39.72;94678.25;5009146;28;20100;-62
2022/12/23 03:23:06;;;;;;;30.13;23.88;;;;;;;21.11;40.16;94661.94;4999535;28;20053;-64
2022/12/23 03:25:53;;;;;;;29.73;22.98;;;;;;;21.20;40.14;94677.94;4986960;28;20049;-65
2022/12/23 03:28:24;;;;;;;29.17;23.73;;;;;;;21.34;40.19;94704.00;4987633;28;20146;-64
2022/12/23 03:30:51;;;;;;;31.40;24.65;;;;;;;21.10;40.31;94674.03;4940304;28;20050;-65
2022/12/23 03:33:26;;;;;;;31.17;24.25;;;;;;;21.16;40.19;94677.47;5001183;28;20097;-65
2022/12/23 03:35:54;;;;;;;30.67;24.63;;;;;;;21.34;40.10;94701.31;5004171;28;20092;-65
2022/12/23 03:38:20;;;;;;;30.38;24.25;;;;;;;21.32;40.14;94706.50;4979328;28;20026;-64
2022/12/23 03:40:51;;;;;;;31.85;24.92;;;;;;;21.13;40.24;94689.31;4990779;28;20041;-65
2022/12/23 03:43:26;;;;;;;32.95;25.38;;;;;;;21.23;40.32;94712.25;4991708;28;20477;-64
2022/12/23 03:45:54;;;;;;;29.65;24.30;;;;;;;21.18;40.34;94706.81;4985938;28;20061;-64
2022/12/23 03:48:44;;;;;;;33.15;24.80;;;;;;;21.20;40.06;94704.38;5001789;28;20056;-63
2022/12/23 03:51:13;;;;;;;30.65;24.17;;;;;;;21.31;39.82;94710.44;5017292;28;20038;-64
2022/12/23 03:53:43;;;;;;;31.60;24.77;;;;;;;21.31;40.18;94715.88;4977593;28;20461;-64
2022/12/23 03:56:21;;;;;;;31.63;25.75;;;;;;;20.50;40.14;94594.91;4985038;28;20050;-65
2022/12/23 03:58:47;;;;;;;30.77;24.38;;;;;;;21.33;40.12;94718.09;4989179;28;20077;-64
2022/12/23 04:01:46;;;;;;;29.35;24.63;;;;;;;21.29;40.26;94707.50;5011454;28;20533;-65
2022/12/23 04:04:23;;;;;;;31.60;25.33;;;;;;;21.25;40.20;94707.03;4977233;28;20058;-63
2022/12/23 04:06:53;;;;;;;30.52;24.73;;;;;;;21.20;40.20;94702.38;4997631;28;20149;-65
2022/12/23 04:09:19;;;;;;;31.25;24.83;;;;;;;21.12;40.20;94693.28;5002784;28;20426;-65
2022/12/23 04:11:44;;;;;;;30.42;24.00;;;;;;;21.19;40.09;94706.31;5011431;28;20042;-64
2022/12/23 04:14:09;;;;;;;31.13;25.05;;;;;;;21.19;40.04;94703.59;4998883;28;20657;-64
2022/12/23 04:16:35;;;;;;;31.52;24.52;;;;;;;19.73;39.94;94509.66;4997078;28;20766;-63
2022/12/23 04:19:00;;;;;;;33.15;26.13;;;;;;;21.26;40.31;94713.94;5012346;28;20054;-63
2022/12/23 04:21:26;;;;;;;33.10;25.77;;;;;;;21.25;40.40;94715.19;4994091;28;20057;-63
2022/12/23 04:23:51;;;;;;;32.50;25.98;;;;;;;21.25;40.38;94709.75;5005124;28;20529;-64
2022/12/23 04:26:16;;;;;;;31.50;24.05;;;;;;;20.56;40.23;94609.91;4995329;28;20030;-65
2022/12/23 04:28:42;;;;;;;32.10;25.00;;;;;;;21.16;40.41;94699.19;5010707;28;20042;-63
2022/12/23 04:31:07;;;;;;;32.80;25.10;;;;;;;21.03;40.31;94682.72;5014823;28;20049;-64
2022/12/23 04:33:33;;;;;;;33.10;25.73;;;;;;;21.17;40.20;94705.38;5018951;28;20046;-66
2022/12/23 04:35:59;;;;;;;32.00;25.30;;;;;;;21.17;39.87;94695.22;5011848;28;20033;-63
2022/12/23 04:38:24;;;;;;;33.13;25.90;;;;;;;21.18;40.20;94691.28;5006956;28;20057;-64
2022/12/23 04:40:50;;;;;;;32.95;25.17;;;;;;;21.10;40.47;94676.75;5019830;28;20563;-63
2022/12/23 04:43:15;;;;;;;31.98;25.45;;;;;;;21.09;40.37;94683.44;5024530;28;20486;-64
2022/12/23 04:45:41;;;;;;;34.78;26.88;;;;;;;21.20;40.22;94705.09;5007586;28;20064;-63
2022/12/23 04:48:06;;;;;;;32.55;25.42;;;;;;;20.66;40.31;94618.50;5001578;28;20033;-62
2022/12/23 04:50:32;;;;;;;34.88;27.00;;;;;;;21.26;40.14;94708.50;5016615;28;20516;-64
2022/12/23 04:52:57;;;;;;;32.63;25.98;;;;;;;19.57;40.02;94477.94;5015551;28;20041;-65
2022/12/23 04:55:23;;;;;;;32.67;25.13;;;;;;;21.18;40.08;94707.59;5021365;28;20060;-65
2022/12/23 04:57:48;;;;;;;31.58;24.80;;;;;;;21.06;40.15;94727.88;5005602;28;20065;-63
2022/12/23 05:00:14;;;;;;;35.50;27.60;;;;;;;21.12;40.06;94720.44;5002015;28;20042;-65
2022/12/23 05:02:39;;;;;;;34.70;27.30;;;;;;;20.78;40.35;94663.38;4999856;28;20029;-63
2022/12/23 05:05:05;;;;;;;35.70;27.05;;;;;;;21.14;40.30;94717.97;5009574;28;20054;-63
2022/12/23 05:07:30;;;;;;;32.63;26.45;;;;;;;21.16;40.07;94726.34;5001041;28;20042;-65
2022/12/23 05:10:00;;;;;;;34.33;26.00;;;;;;;21.44;39.83;94735.09;5007258;28;20104;-64
2022/12/23 05:12:28;;;;;;;36.65;27.27;;;;;;;21.18;39.40;94642.41;5016568;28;20038;-64
2022/12/23 05:14:54;;;;;;;36.90;27.80;;;;;;;21.98;39.22;94734.72;5010016;28;20039;-65
2022/12/23 05:17:19;;;;;;;36.15;26.98;;;;;;;22.06;39.07;94735.66;5006446;28;20527;-63
2022/12/23 05:19:45;;;;;;;34.78;27.38;;;;;;;22.11;38.62;94726.72;5014304;28;20072;-64
2022/12/23 05:22:10;;;;;;;34.63;26.55;;;;;;;22.26;38.71;94737.25;5007923;28;20467;-63
2022/12/23 05:24:36;;;;;;;34.75;27.77;;;;;;;21.69;38.87;94636.16;5010013;28;20085;-65
2022/12/23 05:27:01;;;;;;;33.58;26.92;;;;;;;22.34;38.15;94717.13;4995816;28;20568;-63
2022/12/23 05:29:28;;;;;;;34.10;27.17;;;;;;;22.63;38.05;94744.31;4974933;28;20050;-63
2022/12/23 05:31:53;;;;;;;34.10;26.85;;;;;;;22.01;37.67;94630.38;4986013;28;20058;-63
2022/12/23 05:34:19;;;;;;;34.45;27.33;;;;;;;22.67;37.47;94711.34;5002563;28;20887;-65
2022/12/23 05:36:44;;;;;;;34.40;26.92;;;;;;;22.20;37.43;94636.63;4995983;28;20049;-65
2022/12/23 05:39:09;;;;;;;31.88;26.38;;;;;;;22.98;37.55;94720.41;5003431;28;20152;-63
2022/12/23 05:41:35;;;;;;;34.42;26.95;;;;;;;23.15;37.06;94729.13;4976255;28;20484;-63
2022/12/23 05:44:00;;;;;;;33.80;26.38;;;;;;;23.23;36.81;94730.00;5018313;28;20427;-63
2022/12/23 05:46:26;;;;;;;32.28;25.80;;;;;;;23.18;37.03;94728.06;5002113;28;20045;-63
2022/12/23 05:48:51;;;;;;;35.33;27.63;;;;;;;23.20;37.41;94741.19;5002954;28;20127;-63
2022/12/23 05:51:17;;;;;;;33.20;26.98;;;;;;;23.25;36.80;94737.66;5002126;28;20422;-63
2022/12/23 05:53:42;;;;;;;32.63;26.48;;;;;;;23.36;36.81;94732.78;5004208;28;20038;-65
2022/12/23 05:56:07;;;;;;;32.25;26.23;;;;;;;23.39;36.98;94731.75;5003345;28;20042;-62
2022/12/23 05:58:33;;;;;;;33.67;25.67;;;;;;;23.29;36.99;94711.59;5003097;28;20053;-63
2022/12/23 06:01:01;;;;;;;34.08;26.77;;;;;;;23.38;36.97;94730.31;5002691;28;20124;-63
2022/12/23 06:03:26;;;;;;;32.45;26.73;;;;;;;22.89;36.85;94654.66;5002297;28;20053;-62
2022/12/23 06:05:51;;;;;;;32.85;26.20;;;;;;;23.53;37.20;94733.31;4973949;28;20415;-63
2022/12/23 06:08:17;;;;;;;34.40;25.90;;;;;;;23.55;37.10;94722.63;5003945;28;20463;-62
2022/12/23 06:10:43;;;;;;;34.13;26.73;;;;;;;23.74;36.07;94707.03;4985070;28;20057;-64
2022/12/23 06:13:08;;;;;;;32.88;26.70;;;;;;;24.10;36.49;94739.66;5003983;28;20054;-64
2022/12/23 06:15:34;;;;;;;31.08;25.17;;;;;;;23.35;36.33;94633.25;5007120;28;20129;-63
2022/12/23 06:17:59;;;;;;;33.75;26.73;;;;;;;24.18;36.17;94735.06;4999565;28;20494;-63
2022/12/23 06:20:24;;;;;;;32.60;26.85;;;;;;;24.05;36.54;94737.75;5004566;28;20049;-65
2022/12/23 06:22:50;;;;;;;33.25;25.73;;;;;;;24.12;36.83;94731.69;5002493;28;20049;-66
2022/12/23 06:25:15;;;;;;;31.60;25.65;;;;;;;24.10;36.71;94734.19;4985877;28;20525;-64
2022/12/23 06:27:41;;;;;;;32.67;25.90;;;;;;;24.23;37.09;94730.75;4996128;28;20042;-61
2022/12/23 06:30:07;;;;;;;33.38;26.15;;;;;;;24.12;38.80;94715.31;5014967;28;20034;-63
2022/12/23 06:32:32;;;;;;;33.13;26.58;;;;;;;24.15;37.75;94738.09;5019916;28;20021;-65
2022/12/23 06:34:58;;;;;;;31.77;25.35;;;;;;;24.17;38.49;94749.22;5028943;28;20037;-62
2022/12/23 06:37:23;;;;;;;29.25;24.88;;;;;;;24.36;39.97;94750.66;5007747;28;20057;-62
2022/12/23 06:39:49;;;;;;;30.63;25.48;;;;;;;23.60;39.12;94621.72;4996980;28;20050;-65
2022/12/23 06:42:14;;;;;;;30.08;25.40;;;;;;;24.27;41.87;94731.94;5015198;28;20042;-68
2022/12/23 06:44:40;;;;;;;30.80;24.88;;;;;;;24.34;38.67;94743.00;5010164;28;20041;-62
2022/12/23 06:47:05;;;;;;;33.28;25.65;;;;;;;24.07;37.88;94702.50;5012611;28;20053;-66
2022/12/23 06:49:31;;;;;;;31.35;25.25;;;;;;;24.38;37.43;94709.97;5024351;28;20074;-65
2022/12/23 06:51:56;;;;;;;31.00;25.55;;;;;;;24.13;36.89;94689.50;5013713;28;20495;-65
2022/12/23 06:54:22;;;;;;;29.27;25.00;;;;;;;24.53;37.33;94742.94;5007934;28;20504;-63
2022/12/23 06:56:47;;;;;;;29.98;24.50;;;;;;;24.65;36.98;94755.13;5019761;28;20087;-66
2022/12/23 06:59:13;;;;;;;31.75;25.75;;;;;;;24.69;36.58;94761.00;5012862;28;20084;-66
2022/12/23 07:01:39;;;;;;;29.15;24.83;;;;;;;24.75;36.38;94769.84;5015381;28;20462;-63
2022/12/23 07:04:04;;;;;;;31.33;26.13;;;;;;;24.59;37.07;94746.31;5014677;28;20137;-65
2022/12/23 07:06:30;;;;;;;31.13;25.17;;;;;;;24.61;36.87;94760.16;5010105;28;20041;-66
2022/12/23 07:08:55;;;;;;;32.55;25.25;;;;;;;24.76;36.54;94738.56;5022878;28;20037;-66
2022/12/23 07:11:21;;;;;;;32.10;26.02;;;;;;;25.03;36.26;94755.16;4986657;28;20042;-65
2022/12/23 07:13:46;;;;;;;31.98;24.52;;;;;;;25.13;35.95;94756.22;5011453;28;20045;-62
2022/12/23 07:16:12;;;;;;;32.25;25.77;;;;;;;25.10;35.96;94751.81;5007448;28;20049;-64
2022/12/23 07:18:37;;;;;;;31.17;25.40;;;;;;;24.99;35.97;94752.03;5016016;28;20361;-65
2022/12/23 07:21:03;;;;;;;29.42;25.45;;;;;;;24.78;36.11;94733.28;5014877;28;20030;-64
2022/12/23 07:23:29;;;;;;;30.90;24.77;;;;;;;24.91;36.38;94762.06;5015789;28;20038;-61
2022/12/23 07:25:54;;;;;;;31.08;25.33;;;;;;;24.82;36.31;94732.44;5004788;28;20513;-63
2022/12/23 07:28:20;;;;;;;31.23;25.55;;;;;;;25.00;35.99;94758.94;5011715;28;20068;-63
2022/12/23 07:30:46;;;;;;;31.40;25.83;;;;;;;24.82;36.35;94736.44;5006192;28;20049;-62
2022/12/23 07:33:11;;;;;;;33.85;25.77;;;;;;;25.08;35.94;94765.28;5006355;28;20131;-61
2022/12/23 07:35:37;;;;;;;30.38;24.35;;;;;;;25.12;35.96;94765.66;5006381;28;20034;-60
2022/12/23 07:38:02;;;;;;;29.48;25.27;;;;;;;25.11;35.98;94768.94;5004684;28;20671;-63
2022/12/23 07:40:28;;;;;;;31.23;25.30;;;;;;;25.09;35.92;94766.72;5018032;28;20371;-65
2022/12/23 07:42:57;;;;;;;31.33;25.23;;;;;;;25.15;35.76;94775.56;4993892;28;20054;-66
2022/12/23 07:45:23;;;;;;;28.48;24.65;;;;;;;25.18;35.79;94766.28;5012478;28;20418;-67
2022/12/23 07:47:53;;;;;;;30.70;24.73;;;;;;;25.07;35.83;94752.84;4997042;28;20057;-65
2022/12/23 07:50:18;;;;;;;30.58;25.38;;;;;;;25.41;35.23;94770.03;4993857;28;20065;-63
2022/12/23 07:52:44;;;;;;;30.25;25.08;;;;;;;25.31;35.21;94760.09;5014338;28;20033;-66
2022/12/23 07:55:09;;;;;;;30.80;24.92;;;;;;;25.47;35.29;94771.44;4998357;28;20053;-63
2022/12/23 07:57:36;;;;;;;29.70;24.58;;;;;;;25.27;35.46;94754.94;5015164;28;20060;-63
2022/12/23 08:00:12;;;;;;;27.95;24.35;;;;;;;25.41;35.05;94756.38;5013965;28;20017;-64
2022/12/23 08:02:38;;;;;;;30.75;25.05;;;;;;;25.49;35.39;94773.63;5009723;28;21070;-64
2022/12/23 08:05:04;;;;;;;30.20;24.95;;;;;;;25.40;35.24;94768.59;5012066;28;20049;-62
2022/12/23 08:07:29;;;;;;;29.33;24.83;;;;;;;25.41;35.11;94775.53;5010597;28;20058;-64
2022/12/23 08:09:55;;;;;;;30.27;25.27;;;;;;;25.40;35.28;94774.06;5015790;28;20053;-65
2022/12/23 08:12:20;;;;;;;29.52;24.83;;;;;;;25.35;35.36;94796.75;4998398;28;20120;-62
2022/12/23 08:14:47;;;;;;;29.77;24.80;;;;;;;25.41;35.03;94770.03;5015920;28;20085;-65
2022/12/23 08:17:12;;;;;;;29.10;24.35;;;;;;;25.36;35.37;94762.72;5011005;28;20482;-64
2022/12/23 08:19:38;;;;;;;30.75;25.30;;;;;;;25.42;35.05;94782.47;5011976;28;20049;-64
2022/12/23 08:22:03;;;;;;;30.25;24.45;;;;;;;25.26;35.81;94775.34;5014773;28;20137;-66
2022/12/23 08:24:29;;;;;;;29.77;24.58;;;;;;;25.39;34.87;94783.53;4984427;28;20128;-62
2022/12/23 08:26:54;;;;;;;26.58;23.42;;;;;;;25.23;35.38;94787.34;5018936;28;20415;-66
2022/12/23 08:29:19;;;;;;;30.92;24.17;;;;;;;25.15;35.35;94786.47;5016169;28;20029;-67
2022/12/23 08:31:45;;;;;;;30.38;24.30;;;;;;;25.20;35.19;94791.13;5016641;28;20056;-67
2022/12/23 08:34:11;;;;;;;30.17;25.38;;;;;;;25.03;35.86;94787.22;5017555;28;20057;-65
2022/12/23 08:36:36;;;;;;;29.45;24.38;;;;;;;24.85;35.60;94747.78;5011146;28;20519;-64
2022/12/23 08:39:04;;;;;;;27.35;24.25;;;;;;;24.92;35.41;94747.16;5012257;28;20518;-65
2022/12/23 08:41:31;;;;;;;31.05;23.58;;;;;;;25.06;35.49;94750.66;5019205;28;20125;-65
2022/12/23 08:43:57;;;;;;;28.58;23.63;;;;;;;25.20;35.66;94777.47;5017116;28;20057;-64
2022/12/23 08:46:22;;;;;;;33.83;25.08;;;;;;;24.93;36.07;94756.84;4987769;28;20041;-62
2022/12/23 08:48:48;;;;;;;29.73;23.25;;;;;;;24.87;35.93;94761.66;5021875;28;20100;-61
2022/12/23 08:51:15;;;;;;;28.00;23.13;;;;;;;24.56;36.50;94763.75;5011025;28;20570;-61
2022/12/23 08:53:40;;;;;;;28.42;23.48;;;;;;;24.56;36.79;94775.38;4978954;28;20069;-61
2022/12/23 08:56:08;;;;;;;30.42;24.45;;;;;;;24.70;36.42;94779.59;5013939;28;20168;-64
2022/12/23 08:58:38;;;;;;;27.38;22.77;;;;;;;24.43;36.48;94755.50;5011131;28;20127;-64
2022/12/23 09:03:39;;;;;;;29.73;23.52;;;;;;;24.43;37.21;94771.91;3381577;26;20078;-63
2022/12/23 09:06:09;;;;;;;29.17;23.05;;;;;;;24.36;37.02;94772.50;5041783;28;20043;-65
2022/12/23 09:08:34;;;;;;;26.70;23.35;;;;;;;24.41;36.96;94768.97;5033401;28;20032;-65
2022/12/23 09:11:00;;;;;;;28.13;22.80;;;;;;;24.43;37.13;94769.16;5062243;28;20504;-65
2022/12/23 09:13:25;;;;;;;28.20;23.08;;;;;;;24.31;36.90;94745.28;5044459;28;20525;-65
2022/12/23 09:15:50;;;;;;;29.45;22.80;;;;;;;24.18;36.98;94743.25;5061061;28;20049;-65
2022/12/23 09:18:16;;;;;;;29.30;22.80;;;;;;;24.34;37.19;94775.03;5025202;28;20487;-66
2022/12/23 09:20:41;;;;;;;29.35;23.52;;;;;;;24.22;37.07;94773.69;5063268;28;20502;-66
2022/12/23 09:23:07;;;;;;;29.05;23.00;;;;;;;23.55;37.43;94679.75;5045008;28;20432;-66
2022/12/23 09:25:33;;;;;;;29.02;23.27;;;;;;;24.18;37.10;94762.34;5031078;28;20485;-65
2022/12/23 09:27:59;;;;;;;27.70;21.80;;;;;;;24.17;37.54;94766.34;5018319;28;20124;-65
2022/12/23 09:30:24;;;;;;;29.00;23.05;;;;;;;24.02;37.12;94766.09;5004351;28;20858;-64
2022/12/23 09:32:50;;;;;;;28.40;22.67;;;;;;;22.78;37.00;94578.59;5028523;28;20044;-66
2022/12/23 09:35:15;;;;;;;25.85;21.38;;;;;;;23.75;37.30;94719.38;5042169;28;20053;-63
2022/12/23 09:37:41;;;;;;;27.58;22.17;;;;;;;23.53;37.21;94687.72;5039613;28;20558;-67
2022/12/23 09:40:09;;;;;;;26.20;22.17;;;;;;;24.11;37.75;94773.13;5034875;28;20053;-68
2022/12/23 09:42:43;;;;;;;27.65;22.67;;;;;;;24.06;37.40;94766.50;5027175;28;20132;-64
2022/12/23 09:45:29;;;;;;;28.17;22.85;;;;;;;24.05;37.44;94756.84;5032532;28;20033;-63
2022/12/23 09:47:54;;;;;;;27.35;22.30;;;;;;;24.09;37.27;94768.19;5027653;28;20029;-66
2022/12/23 09:50:25;;;;;;;28.67;22.45;;;;;;;23.92;37.50;94761.53;5053480;28;20044;-65
2022/12/23 09:53:05;;;;;;;28.05;22.73;;;;;;;23.92;37.67;94742.44;5020951;28;20072;-64
2022/12/23 09:55:45;;;;;;;27.95;22.45;;;;;;;24.01;37.74;94759.16;5055018;28;20141;-65
2022/12/23 09:58:33;;;;;;;26.50;22.17;;;;;;;23.96;37.73;94757.25;5061576;28;20050;-67
2022/12/23 10:01:25;;;;;;;27.10;22.27;;;;;;;23.83;37.82;94758.47;5056143;28;20067;-65
2022/12/23 10:04:20;;;;;;;26.63;21.00;;;;;;;23.91;37.57;94798.22;5045943;28;20056;-66
2022/12/23 10:06:49;;;;;;;25.95;22.60;;;;;;;23.86;37.80;94751.97;5061661;28;20114;-66
2022/12/23 10:09:14;;;;;;;28.40;22.50;;;;;;;23.46;37.44;94676.69;5023674;28;20064;-65
2022/12/23 10:11:41;;;;;;;27.15;22.10;;;;;;;23.94;37.20;94765.19;5058459;28;20440;-68
2022/12/23 10:14:13;;;;;;;27.92;22.40;;;;;;;24.16;37.41;94748.50;5044647;28;20075;-64
2022/12/23 10:16:40;;;;;;;27.30;21.95;;;;;;;23.80;37.22;94710.41;5059263;28;20072;-63
2022/12/23 10:19:11;;;;;;;26.73;22.08;;;;;;;23.92;37.24;94721.34;5032914;28;20053;-65
2022/12/23 10:21:43;;;;;;;27.42;21.60;;;;;;;24.18;37.44;94745.97;5026290;28;20045;-64
2022/12/23 10:24:32;;;;;;;25.67;21.70;;;;;;;22.48;36.72;94476.56;5026071;28;20039;-64
2022/12/23 10:27:05;;;;;;;27.40;21.80;;;;;;;24.11;37.15;94719.31;5029541;28;20475;-63
2022/12/23 10:29:31;;;;;;;26.55;21.15;;;;;;;24.18;37.12;94715.22;5028295;28;20504;-66
2022/12/23 10:32:38;;;;;;;30.13;22.80;;;;;;;24.53;36.58;94734.75;5034262;28;20130;-67
2022/12/23 10:35:04;;;;;;;28.80;22.40;;;;;;;24.71;36.61;94726.47;5061171;28;20060;-66
2022/12/23 10:37:37;;;;;;;25.55;20.98;;;;;;;24.62;36.69;94709.75;5060741;28;20072;-64
2022/12/23 10:40:41;;;;;;;26.38;21.13;;;;;;;24.58;37.00;94728.44;5027836;28;20049;-65
2022/12/23 10:43:34;;;;;;;25.75;21.45;;;;;;;24.84;36.66;94724.47;4988118;28;20042;-64
2022/12/23 10:46:09;;;;;;;26.48;21.38;;;;;;;24.85;36.28;94719.75;5013101;28;20552;-64
2022/12/23 10:48:40;;;;;;;27.38;21.48;;;;;;;24.97;36.55;94710.78;5048239;28;20044;-67
2022/12/23 10:51:28;;;;;;;27.50;21.75;;;;;;;24.85;36.54;94703.34;5044260;28;20067;-69
2022/12/23 10:54:14;;;;;;;32.58;23.63;;;;;;;24.71;36.31;94710.09;5043902;28;20067;-69
2022/12/23 10:56:40;;;;;;;26.95;21.67;;;;;;;24.95;36.02;94705.13;5027363;28;20059;-66
2022/12/23 10:59:06;;;;;;;26.35;21.35;;;;;;;23.85;36.25;94543.97;5044357;28;20052;-66
2022/12/23 11:01:31;;;;;;;26.67;20.77;;;;;;;25.00;36.44;94704.31;5059359;28;20052;-64
2022/12/23 11:04:13;;;;;;;26.23;21.02;;;;;;;24.86;36.41;94699.38;5034104;28;20045;-66
2022/12/23 11:06:41;;;;;;;33.05;24.00;;;;;;;24.67;36.38;94706.19;5028022;28;20041;-66
2022/12/23 11:09:09;;;;;;;27.10;22.63;;;;;;;24.81;36.92;94707.66;5021539;28;20472;-67
2022/12/23 11:12:04;;;;;;;26.35;21.63;;;;;;;25.01;36.56;94700.31;5023970;28;20025;-66
2022/12/23 11:14:40;;;;;;;39.88;24.80;;;;;;;24.89;35.86;94698.31;4995898;28;20052;-65
2022/12/23 11:17:19;;;;;;;26.88;22.05;;;;;;;24.88;36.22;94658.59;5040982;28;20049;-66
2022/12/23 11:19:44;;;;;;;27.88;22.55;;;;;;;25.02;36.48;94690.88;5047699;28;20071;-66
2022/12/23 11:22:23;;;;;;;26.30;22.00;;;;;;;25.12;36.18;94694.63;5030366;28;20124;-66
2022/12/23 11:24:49;;;;;;;30.08;22.25;;;;;;;25.14;36.07;94697.59;5033890;28;20053;-66
2022/12/23 11:27:17;;;;;;;28.10;22.05;;;;;;;25.03;35.72;94686.84;5056908;28;20049;-68
2022/12/23 11:29:45;;;;;;;27.52;22.23;;;;;;;24.80;35.89;94640.63;5026950;28;20040;-68
2022/12/23 11:32:34;;;;;;;29.95;22.45;;;;;;;24.61;36.22;94623.66;5029918;28;20072;-65
2022/12/23 11:35:00;;;;;;;27.45;21.75;;;;;;;24.35;35.93;94590.91;5024790;28;20045;-64
2022/12/23 11:37:35;;;;;;;27.77;21.77;;;;;;;23.93;36.19;94529.19;5026390;28;20835;-64
2022/12/23 11:40:03;;;;;;;26.20;21.63;;;;;;;25.19;35.43;94699.44;5020674;28;20048;-66
2022/12/23 11:42:29;;;;;;;28.77;23.40;;;;;;;25.22;35.61;94703.88;5021144;28;20047;-68
2022/12/23 11:44:56;;;;;;;25.20;21.05;;;;;;;25.15;35.86;94704.50;5045252;28;20438;-60
2022/12/23 11:47:21;;;;;;;29.20;21.85;;;;;;;25.24;35.92;94717.72;5026734;28;20540;-62
2022/12/23 11:49:48;;;;;;;26.88;22.23;;;;;;;25.19;35.83;94715.84;5039259;28;20037;-63
2022/12/23 11:52:17;;;;;;;28.50;22.27;;;;;;;24.97;35.85;94697.13;5056322;28;20041;-63
2022/12/23 11:54:44;;;;;;;26.60;21.70;;;;;;;24.31;36.16;94606.84;5023541;28;20040;-66
2022/12/23 11:57:15;;;;;;;27.17;22.40;;;;;;;25.09;35.80;94684.75;4996071;28;20501;-64